Portada
METAR-TAF:

METAR-TAF

Aeropuertos :

Catacamas, Honduras

latitud: 14-54N, longitud: 085-56W, altitud: 442 m

Observación

El informe se hizo hace 41 minutos, a las 20:00 UTC
Viento 5 kt del este-noreste
Temperatura 33°C
Humedad 56%
Presión 1015 hPa
Visibilidad 10 km o más
Nubes dispersas a una altura de 2800 ft, Cumulus congestus.

METAR: MHCA 232000Z 07005KT 9999 SCT028TCU 33/23 Q1015

Hora: 14:41 (20:41 UTC)


TAF: falta

Observaciones y pronósticos meteorológicos de más de 4000 aeropuertos (mensajes METAR y TAF).

Los puntos amarillos y rojos representan las estaciones disponibles.

Ponga el ratón en el punto deseado para ver el nombre de la estación.

Haga clic para ver las observaciones y los pronósticos meteorológicos.

Para cambiar el mapa : haga clic en los botones verdes con una cruz de color negro para hacer un zoom, en el botón verde con un guión para alejar o en las flechas verdes para mapas adyacentes.


METAR-TAF: